Time;durP1;ratioP1;P1;durP2;ratioP2;P2;SDS_P1;SDS_P2;PMS_P1;PMS_P2;Temp;Humidity;BMP_temperature;BMP_pressure;BME280_temperature;BME280_humidity;BME280_pressure;Samples;Min_cycle;Max_cycle;Signal;HPM_P1;HPM_P2
2023/05/08 00:01:11;;;;;;;12.67;11.07;;;13.00;99.90;;;;;;4975411;28;20495;-81
2023/05/08 00:03:36;;;;;;;12.40;10.73;;;12.90;99.90;;;;;;4974577;28;20487;-82
2023/05/08 00:06:05;;;;;;;13.83;11.07;;;12.90;99.90;;;;;;4974398;28;20078;-81
2023/05/08 00:08:31;;;;;;;14.23;11.30;;;12.90;99.90;;;;;;4974508;28;20134;-81
2023/05/08 00:10:57;;;;;;;12.43;11.17;;;12.90;99.90;;;;;;4974533;28;20286;-81
2023/05/08 00:13:23;;;;;;;12.03;10.83;;;12.90;99.90;;;;;;4975055;28;20286;-82
2023/05/08 00:15:49;;;;;;;14.93;11.20;;;12.80;99.90;;;;;;4973740;28;20094;-81
2023/05/08 00:18:15;;;;;;;13.60;10.73;;;12.80;99.90;;;;;;4974454;28;20055;-81
2023/05/08 00:20:41;;;;;;;12.43;11.13;;;12.80;99.90;;;;;;4973742;28;20446;-81
2023/05/08 00:23:07;;;;;;;12.40;11.07;;;12.70;99.90;;;;;;4974421;28;20283;-81
2023/05/08 00:25:33;;;;;;;11.93;10.73;;;12.70;99.90;;;;;;4974102;28;20306;-82
2023/05/08 00:27:59;;;;;;;12.33;11.03;;;12.70;99.90;;;;;;4974411;28;20314;-82
2023/05/08 00:30:25;;;;;;;14.50;11.53;;;12.70;99.90;;;;;;4974356;28;20845;-81
2023/05/08 00:32:51;;;;;;;13.17;11.77;;;12.60;99.90;;;;;;4974567;28;20289;-81
2023/05/08 00:35:17;;;;;;;12.60;11.30;;;12.60;99.90;;;;;;4974340;28;20361;-81
2023/05/08 00:37:43;;;;;;;14.43;11.13;;;12.60;99.90;;;;;;4973315;28;20051;-81
2023/05/08 00:40:10;;;;;;;12.33;11.03;;;12.60;99.90;;;;;;4975040;28;20289;-81
2023/05/08 00:42:36;;;;;;;13.33;11.93;;;12.60;99.90;;;;;;4974014;28;20102;-81
2023/05/08 00:45:04;;;;;;;14.17;11.43;;;12.50;99.90;;;;;;4974156;28;20309;-81
2023/05/08 00:47:31;;;;;;;13.20;11.77;;;12.50;99.90;;;;;;4974222;28;20288;-81
2023/05/08 00:49:57;;;;;;;12.37;11.07;;;12.50;99.90;;;;;;4974176;28;20352;-81
2023/05/08 00:52:25;;;;;;;12.93;11.63;;;12.50;99.90;;;;;;4973213;28;20290;-81
2023/05/08 00:54:51;;;;;;;14.37;12.03;;;12.40;99.90;;;;;;4974164;28;20329;-81
2023/05/08 00:57:17;;;;;;;13.90;11.70;;;12.40;99.90;;;;;;4974109;28;20845;-81
2023/05/08 00:59:45;;;;;;;13.40;11.07;;;12.40;99.90;;;;;;4975465;28;20301;-81
2023/05/08 01:02:12;;;;;;;14.07;12.07;;;12.30;99.90;;;;;;4977450;28;20623;-81
2023/05/08 01:04:39;;;;;;;16.03;12.33;;;12.40;99.90;;;;;;4976486;28;20282;-81
2023/05/08 01:07:05;;;;;;;14.10;12.53;;;12.30;99.90;;;;;;4977520;28;20297;-81
2023/05/08 01:09:31;;;;;;;13.43;12.03;;;12.30;99.90;;;;;;4977581;28;20646;-81
2023/05/08 01:12:35;;;;;;;16.00;12.87;;;12.30;99.90;;;;;;4978037;28;20055;-81
2023/05/08 01:15:11;;;;;;;15.03;13.43;;;12.20;99.90;;;;;;4975854;28;20062;-81
2023/05/08 01:18:05;;;;;;;14.00;12.60;;;12.20;99.90;;;;;;4977140;28;20380;-81
2023/05/08 01:20:43;;;;;;;12.43;11.03;;;12.20;99.90;;;;;;4977428;28;20282;-81
2023/05/08 01:23:53;;;;;;;14.80;12.30;;;12.20;99.90;;;;;;4977342;28;20341;-81
2023/05/08 01:26:50;;;;;;;14.43;12.00;;;12.20;99.90;;;;;;4977176;28;20832;-81
2023/05/08 01:29:19;;;;;;;13.07;11.67;;;12.20;99.90;;;;;;4977026;28;20381;-81
2023/05/08 01:32:11;;;;;;;14.37;12.57;;;12.20;99.90;;;;;;4975917;28;20603;-81
2023/05/08 01:34:47;;;;;;;14.47;12.67;;;12.20;99.90;;;;;;4977697;28;20274;-81
2023/05/08 01:37:17;;;;;;;15.43;12.50;;;12.10;99.90;;;;;;4977623;28;20623;-81
2023/05/08 01:39:56;;;;;;;13.83;12.43;;;12.10;99.90;;;;;;4976832;28;20381;-81
2023/05/08 01:42:32;;;;;;;14.60;12.10;;;12.10;99.90;;;;;;4976963;28;20306;-82
2023/05/08 01:45:02;;;;;;;16.60;13.93;;;12.10;99.90;;;;;;4976810;28;20282;-81
2023/05/08 01:47:35;;;;;;;15.40;13.50;;;12.00;99.90;;;;;;4975806;28;20310;-81
2023/05/08 01:50:13;;;;;;;14.23;12.60;;;12.00;99.90;;;;;;4976801;28;20293;-81
2023/05/08 01:52:45;;;;;;;14.50;13.00;;;12.00;99.90;;;;;;4977037;28;20631;-81
2023/05/08 01:55:25;;;;;;;14.17;12.67;;;12.10;99.90;;;;;;4975708;28;20397;-81
2023/05/08 01:57:53;;;;;;;16.17;13.53;;;12.10;99.90;;;;;;4977071;28;20274;-82
2023/05/08 02:00:21;;;;;;;14.83;12.83;;;12.10;99.90;;;;;;4976896;28;20282;-81
2023/05/08 02:02:49;;;;;;;15.03;13.43;;;12.00;99.90;;;;;;4976412;28;20286;-81
2023/05/08 02:05:17;;;;;;;14.63;12.77;;;12.10;99.90;;;;;;4975365;28;20337;-81
2023/05/08 02:07:45;;;;;;;16.03;13.33;;;12.00;99.90;;;;;;4976385;28;20278;-81
2023/05/08 02:10:12;;;;;;;15.10;13.50;;;12.00;99.90;;;;;;4976171;28;20279;-81
2023/05/08 02:12:39;;;;;;;16.37;13.17;;;12.00;99.90;;;;;;4975711;28;20290;-82
2023/05/08 02:15:08;;;;;;;16.07;13.37;;;12.00;99.90;;;;;;4976011;28;20767;-81
2023/05/08 02:17:37;;;;;;;14.77;13.17;;;11.90;99.90;;;;;;4976296;28;20309;-81
2023/05/08 02:20:04;;;;;;;15.97;13.17;;;11.90;99.90;;;;;;4975248;28;20675;-81
2023/05/08 02:22:31;;;;;;;15.97;13.50;;;12.00;99.90;;;;;;4976150;28;20278;-81
2023/05/08 02:24:57;;;;;;;15.60;13.53;;;11.90;99.90;;;;;;4976076;28;20410;-81
2023/05/08 02:27:26;;;;;;;14.43;12.87;;;11.90;99.90;;;;;;4975121;28;20282;-81
2023/05/08 02:29:54;;;;;;;15.20;13.20;;;11.90;99.90;;;;;;4976119;28;20293;-81
2023/05/08 02:32:22;;;;;;;14.53;13.03;;;11.90;99.90;;;;;;4975742;28;20868;-81
2023/05/08 02:34:49;;;;;;;16.57;13.90;;;11.90;99.90;;;;;;4975956;28;20281;-81
2023/05/08 02:37:18;;;;;;;15.57;13.33;;;11.90;99.90;;;;;;4975897;28;20278;-81
2023/05/08 02:39:46;;;;;;;17.03;15.10;;;11.90;99.90;;;;;;4975877;28;20321;-81
2023/05/08 02:42:12;;;;;;;15.23;13.73;;;11.90;99.90;;;;;;4974521;28;20294;-81
2023/05/08 02:44:38;;;;;;;14.97;13.47;;;11.90;99.90;;;;;;4975839;28;20365;-81
2023/05/08 02:47:24;;;;;;;16.80;14.23;;;11.80;99.90;;;;;;4974430;28;20684;-81
2023/05/08 02:50:02;;;;;;;15.53;13.93;;;11.80;99.90;;;;;;4976064;28;20082;-81
2023/05/08 02:52:51;;;;;;;15.67;13.30;;;11.70;99.90;;;;;;4974997;28;20361;-81
2023/05/08 02:55:33;;;;;;;17.10;13.97;;;11.70;99.90;;;;;;4976170;28;20275;-81
2023/05/08 02:58:06;;;;;;;16.37;13.90;;;11.70;99.90;;;;;;4975628;28;20279;-82
2023/05/08 03:00:39;;;;;;;15.73;14.03;;;11.70;99.90;;;;;;4976275;28;20278;-81
2023/05/08 03:03:14;;;;;;;16.47;14.73;;;11.60;99.90;;;;;;4976039;28;20665;-82
2023/05/08 03:05:46;;;;;;;15.77;14.13;;;11.60;99.90;;;;;;4975171;28;20310;-82
2023/05/08 03:08:23;;;;;;;15.83;14.17;;;11.60;99.90;;;;;;4974296;28;20053;-81
2023/05/08 03:10:52;;;;;;;15.80;13.93;;;11.50;99.90;;;;;;4975399;28;20274;-81
2023/05/08 03:13:20;;;;;;;16.03;14.20;;;11.50;99.90;;;;;;4975777;28;20282;-81
2023/05/08 03:15:52;;;;;;;16.93;15.07;;;11.50;99.90;;;;;;4975248;28;20301;-81
2023/05/08 03:18:22;;;;;;;15.60;13.97;;;11.50;99.90;;;;;;4975322;28;20281;-81
2023/05/08 03:20:52;;;;;;;15.50;13.83;;;11.40;99.90;;;;;;4975431;28;20373;-81
2023/05/08 03:23:20;;;;;;;14.57;12.73;;;11.40;99.90;;;;;;4974677;28;20758;-81
2023/05/08 03:25:46;;;;;;;15.17;13.53;;;11.40;99.90;;;;;;4974692;28;20786;-81
2023/05/08 03:28:13;;;;;;;16.20;14.40;;;11.40;99.90;;;;;;4974049;28;20293;-81
2023/05/08 03:30:40;;;;;;;14.97;13.30;;;11.40;99.90;;;;;;4975052;28;20666;-81
2023/05/08 03:33:07;;;;;;;15.83;14.13;;;11.40;99.90;;;;;;4974495;28;20785;-81
2023/05/08 03:35:37;;;;;;;15.93;14.17;;;11.40;99.90;;;;;;4975387;28;20290;-81
2023/05/08 03:38:04;;;;;;;15.63;13.93;;;11.40;99.90;;;;;;4973757;28;20286;-80
2023/05/08 03:40:35;;;;;;;15.73;14.07;;;11.40;99.90;;;;;;4975402;28;20282;-80
2023/05/08 03:43:02;;;;;;;17.10;15.30;;;11.30;99.90;;;;;;4973549;28;20325;-81
2023/05/08 03:45:30;;;;;;;15.37;13.73;;;11.30;99.90;;;;;;4974777;28;20302;-81
2023/05/08 03:47:57;;;;;;;16.27;14.43;;;11.30;99.90;;;;;;4974803;28;20293;-81
2023/05/08 03:50:23;;;;;;;15.30;13.70;;;11.30;99.90;;;;;;4974793;28;20293;-81
2023/05/08 03:52:49;;;;;;;15.40;13.80;;;11.30;99.90;;;;;;4975088;28;20305;-81
2023/05/08 03:55:15;;;;;;;16.83;14.60;;;11.20;99.90;;;;;;4974702;28;20278;-81
2023/05/08 03:57:58;;;;;;;16.53;14.20;;;11.20;99.90;;;;;;4974658;28;20313;-81
2023/05/08 04:00:50;;;;;;;17.27;13.77;;;11.20;99.90;;;;;;4975490;28;20051;-81
2023/05/08 04:03:22;;;;;;;16.57;14.00;;;11.20;99.90;;;;;;4974484;28;20294;-81
2023/05/08 04:06:05;;;;;;;17.70;14.33;;;11.20;99.90;;;;;;4974654;28;20302;-81
2023/05/08 04:08:41;;;;;;;16.60;14.00;;;11.20;99.90;;;;;;4975236;28;20283;-81
2023/05/08 04:11:30;;;;;;;16.00;14.30;;;11.20;99.90;;;;;;4974945;28;20278;-81
2023/05/08 04:14:09;;;;;;;16.20;13.50;;;11.20;99.90;;;;;;4975424;28;20313;-81
2023/05/08 04:16:38;;;;;;;15.80;13.80;;;11.20;99.90;;;;;;4974499;28;20278;-81
2023/05/08 04:19:14;;;;;;;14.43;13.03;;;11.20;99.90;;;;;;4975146;28;20282;-80
2023/05/08 04:21:42;;;;;;;15.93;13.77;;;11.20;99.90;;;;;;4973445;28;20778;-81
2023/05/08 04:24:11;;;;;;;16.87;14.20;;;11.20;99.90;;;;;;4974216;28;20345;-80
2023/05/08 04:26:37;;;;;;;16.33;13.90;;;11.10;99.90;;;;;;4974822;28;20777;-80
2023/05/08 04:29:05;;;;;;;16.93;14.10;;;11.20;99.90;;;;;;4974461;28;20288;-80
2023/05/08 04:31:33;;;;;;;15.37;13.77;;;11.10;99.90;;;;;;4974924;28;20282;-81
2023/05/08 04:34:00;;;;;;;16.23;14.47;;;11.20;99.90;;;;;;4973529;28;20293;-81
2023/05/08 04:36:28;;;;;;;16.30;13.60;;;11.20;99.90;;;;;;4977401;28;20282;-81
2023/05/08 04:38:54;;;;;;;16.10;14.40;;;11.20;99.90;;;;;;4978649;28;20285;-81
2023/05/08 04:41:20;;;;;;;16.37;14.03;;;11.20;99.90;;;;;;4977869;28;20290;-80
2023/05/08 04:43:46;;;;;;;15.03;13.43;;;11.20;99.90;;;;;;4978418;28;20059;-80
2023/05/08 04:46:11;;;;;;;14.47;12.97;;;11.20;99.90;;;;;;4977320;28;20312;-80
2023/05/08 04:48:37;;;;;;;15.10;13.40;;;11.20;99.90;;;;;;4977937;28;20050;-80
2023/05/08 04:51:03;;;;;;;15.23;13.37;;;11.20;99.90;;;;;;4977965;28;20057;-80
2023/05/08 04:53:29;;;;;;;15.27;13.67;;;11.30;99.90;;;;;;4978157;28;20053;-81
2023/05/08 04:55:56;;;;;;;15.87;13.40;;;11.30;99.90;;;;;;4977874;28;20046;-80
2023/05/08 04:58:22;;;;;;;15.93;13.03;;;11.30;99.90;;;;;;4977834;28;20061;-81
2023/05/08 05:00:47;;;;;;;15.37;13.73;;;11.30;99.90;;;;;;4977797;28;20275;-81
2023/05/08 05:03:13;;;;;;;14.23;12.73;;;11.40;99.90;;;;;;4977763;28;20186;-81
2023/05/08 05:05:39;;;;;;;13.87;12.30;;;11.40;99.90;;;;;;4977552;28;20050;-81
2023/05/08 05:08:04;;;;;;;15.13;12.43;;;11.50;99.90;;;;;;4978106;28;20047;-81
2023/05/08 05:10:30;;;;;;;14.53;13.03;;;11.50;99.90;;;;;;4977341;28;20141;-81
2023/05/08 05:12:56;;;;;;;14.50;12.50;;;11.60;99.90;;;;;;4977591;28;20446;-81
2023/05/08 05:15:21;;;;;;;15.30;13.60;;;11.60;99.90;;;;;;4978212;28;20042;-81
2023/05/08 05:17:47;;;;;;;14.23;12.70;;;11.70;99.90;;;;;;4976821;28;20051;-81
2023/05/08 05:20:13;;;;;;;14.13;12.60;;;11.80;99.90;;;;;;4977228;28;20105;-81
2023/05/08 05:22:39;;;;;;;15.27;12.43;;;11.80;99.90;;;;;;4977213;28;20121;-81
2023/05/08 05:25:06;;;;;;;14.07;12.53;;;11.90;99.90;;;;;;4977127;28;20782;-81
2023/05/08 05:27:35;;;;;;;13.13;11.73;;;12.00;99.90;;;;;;4977223;28;20145;-81
2023/05/08 05:30:01;;;;;;;14.47;12.90;;;12.10;99.90;;;;;;4976508;28;20667;-80
2023/05/08 05:32:27;;;;;;;14.03;11.60;;;12.20;99.90;;;;;;4977288;28;20310;-80
2023/05/08 05:34:53;;;;;;;14.70;12.50;;;12.30;99.90;;;;;;4977626;28;20342;-80
2023/05/08 05:37:19;;;;;;;13.63;12.00;;;12.50;99.90;;;;;;4977129;28;20483;-80
2023/05/08 05:39:44;;;;;;;14.00;11.67;;;12.60;99.90;;;;;;4977099;28;20054;-81
2023/05/08 05:42:10;;;;;;;13.70;12.30;;;12.70;99.90;;;;;;4976956;28;20062;-81
2023/05/08 05:44:36;;;;;;;13.30;11.20;;;13.00;99.90;;;;;;4976029;28;20158;-81
2023/05/08 05:47:04;;;;;;;13.50;11.93;;;13.20;99.90;;;;;;4976783;28;20093;-77
2023/05/08 05:49:29;;;;;;;13.30;11.60;;;14.00;99.90;;;;;;4977389;28;20089;-80
2023/05/08 05:51:55;;;;;;;13.07;11.40;;;14.90;99.90;;;;;;4976001;28;20313;-79
2023/05/08 05:54:21;;;;;;;13.20;10.70;;;15.90;99.90;;;;;;4976839;28;20476;-81
2023/05/08 05:56:47;;;;;;;11.23;10.13;;;16.70;99.90;;;;;;4976782;28;20054;-82
2023/05/08 05:59:13;;;;;;;10.93;9.73;;;17.50;99.90;;;;;;4977257;28;20410;-80
2023/05/08 06:01:39;;;;;;;12.20;10.90;;;18.30;99.90;;;;;;4975739;28;20133;-81
2023/05/08 06:04:05;;;;;;;11.77;10.57;;;18.90;99.90;;;;;;4977341;28;20400;-81
2023/05/08 06:06:30;;;;;;;14.13;10.97;;;19.30;99.90;;;;;;4976022;28;20162;-86
2023/05/08 06:08:56;;;;;;;12.13;10.00;;;19.60;99.90;;;;;;4976577;28;20129;-82
2023/05/08 06:11:22;;;;;;;12.33;10.47;;;19.70;99.90;;;;;;4976542;28;20047;-81
2023/05/08 06:13:48;;;;;;;11.87;10.50;;;19.10;99.90;;;;;;4975392;28;20498;-86
2023/05/08 06:16:14;;;;;;;11.27;10.00;;;18.60;99.90;;;;;;4976375;28;20050;-79
2023/05/08 06:18:40;;;;;;;10.80;9.70;;;18.50;99.90;;;;;;4976342;28;20046;-84
2023/05/08 06:21:06;;;;;;;12.43;9.77;;;18.40;99.90;;;;;;4976511;28;20055;-84
2023/05/08 06:23:32;;;;;;;12.73;11.43;;;17.70;99.90;;;;;;4976943;28;20129;-83
2023/05/08 06:25:57;;;;;;;11.63;10.43;;;17.10;99.90;;;;;;4976640;28;20043;-83
2023/05/08 06:28:24;;;;;;;11.00;9.80;;;16.50;99.90;;;;;;4976179;28;20046;-83
2023/05/08 06:30:51;;;;;;;11.43;10.23;;;16.30;99.90;;;;;;4974958;28;20050;-84
2023/05/08 06:33:18;;;;;;;11.97;10.70;;;16.90;99.90;;;;;;4976392;28;20050;-83
2023/05/08 06:35:47;;;;;;;10.63;9.53;;;17.90;99.90;;;;;;4976299;28;20546;-84
2023/05/08 06:38:13;;;;;;;10.80;9.40;;;19.00;99.90;;;;;;4976237;28;20133;-84
2023/05/08 06:40:43;;;;;;;10.97;9.63;;;20.00;99.90;;;;;;4975978;28;20054;-85
2023/05/08 06:43:09;;;;;;;11.17;9.43;;;20.40;99.70;;;;;;4974770;28;20069;-84
2023/05/08 06:45:35;;;;;;;10.13;8.73;;;20.20;98.90;;;;;;4976391;28;20054;-84
2023/05/08 06:48:01;;;;;;;9.63;8.70;;;20.30;98.20;;;;;;4976398;28;20093;-84
2023/05/08 06:50:27;;;;;;;9.20;8.20;;;20.20;97.00;;;;;;4975545;28;20491;-84
2023/05/08 06:52:53;;;;;;;9.07;8.13;;;20.00;97.00;;;;;;4975744;28;20086;-84
2023/05/08 06:55:19;;;;;;;12.90;9.77;;;19.50;97.40;;;;;;4976411;28;20085;-84
2023/05/08 06:57:44;;;;;;;10.33;8.97;;;19.20;96.20;;;;;;4974135;28;20441;-84
2023/05/08 07:00:11;;;;;;;13.47;9.83;;;18.80;99.50;;;;;;4975657;28;20153;-84
2023/05/08 07:02:36;;;;;;;12.70;10.23;;;18.90;99.90;;;;;;4975629;28;20137;-84
2023/05/08 07:05:02;;;;;;;10.60;9.50;;;18.80;99.90;;;;;;4975691;28;20090;-84
2023/05/08 07:07:28;;;;;;;10.20;9.13;;;18.80;99.90;;;;;;4974584;28;20051;-84
2023/05/08 07:09:53;;;;;;;10.40;9.20;;;18.70;99.90;;;;;;4975968;28;20061;-84
2023/05/08 07:12:19;;;;;;;12.87;9.83;;;18.60;99.90;;;;;;4975460;28;20054;-84
2023/05/08 07:14:45;;;;;;;10.93;9.73;;;18.40;99.90;;;;;;4974260;28;20050;-84
2023/05/08 07:17:10;;;;;;;10.87;9.23;;;18.20;99.90;;;;;;4974695;28;20520;-84
2023/05/08 07:19:37;;;;;;;10.73;9.63;;;17.70;99.90;;;;;;4975376;28;20089;-84
2023/05/08 07:22:04;;;;;;;12.20;10.40;;;17.40;99.90;;;;;;4975266;28;20050;-84
2023/05/08 07:24:30;;;;;;;11.87;9.53;;;17.40;99.90;;;;;;4975201;28;20050;-84
2023/05/08 07:26:56;;;;;;;11.47;10.30;;;17.20;99.90;;;;;;4975022;28;20047;-84
2023/05/08 07:29:21;;;;;;;10.47;9.37;;;17.00;99.90;;;;;;4974926;28;20055;-84
2023/05/08 07:31:47;;;;;;;11.40;9.80;;;16.90;99.90;;;;;;4975379;28;20054;-84
2023/05/08 07:34:13;;;;;;;11.40;9.30;;;17.00;99.90;;;;;;4958303;28;20093;-84
2023/05/08 07:36:39;;;;;;;12.20;9.77;;;17.10;99.90;;;;;;4975024;28;20047;-84
2023/05/08 07:39:05;;;;;;;11.63;10.43;;;17.10;99.90;;;;;;4974964;28;20105;-84
2023/05/08 07:41:31;;;;;;;11.53;10.43;;;17.00;99.90;;;;;;4975404;28;20109;-83
2023/05/08 07:43:57;;;;;;;11.97;10.33;;;17.20;99.90;;;;;;4974248;28;20054;-84
2023/05/08 07:46:22;;;;;;;11.23;9.60;;;17.80;99.90;;;;;;4974774;28;20046;-83
2023/05/08 07:48:48;;;;;;;11.73;9.60;;;18.90;99.90;;;;;;4974824;28;20188;-84
2023/05/08 07:51:14;;;;;;;10.73;9.47;;;20.20;99.90;;;;;;4975105;28;20084;-84
2023/05/08 07:53:40;;;;;;;10.07;8.90;;;20.70;99.90;;;;;;4974517;28;20495;-84
2023/05/08 07:56:06;;;;;;;11.20;10.10;;;20.70;99.30;;;;;;4974760;28;20057;-84
2023/05/08 07:58:32;;;;;;;10.83;9.57;;;20.30;99.10;;;;;;4974758;28;20043;-84
2023/05/08 08:00:58;;;;;;;10.93;9.47;;;19.90;99.90;;;;;;4974677;28;20046;-84
2023/05/08 08:03:23;;;;;;;10.20;9.20;;;19.40;99.90;;;;;;4974505;28;20046;-84
2023/05/08 08:05:49;;;;;;;11.50;10.10;;;19.00;99.90;;;;;;4974301;28;20043;-84
2023/05/08 08:08:15;;;;;;;11.43;10.23;;;18.60;99.90;;;;;;4973725;28;20065;-83
2023/05/08 08:10:40;;;;;;;11.83;10.33;;;18.30;99.90;;;;;;4976654;28;20372;-83
2023/05/08 08:13:06;;;;;;;11.87;10.07;;;18.10;99.90;;;;;;4961458;28;20097;-84
2023/05/08 08:15:32;;;;;;;11.13;10.03;;;17.90;99.90;;;;;;4977688;28;20050;-83
2023/05/08 08:17:57;;;;;;;11.80;10.60;;;17.80;99.90;;;;;;4978555;28;20042;-84
2023/05/08 08:20:23;;;;;;;12.23;11.03;;;17.60;99.90;;;;;;4978575;28;20082;-83
2023/05/08 08:22:49;;;;;;;12.33;10.83;;;17.50;99.90;;;;;;4961349;28;20479;-84
2023/05/08 08:25:15;;;;;;;11.50;10.37;;;17.50;99.90;;;;;;4978927;28;20049;-84
2023/05/08 08:27:40;;;;;;;11.10;10.00;;;17.50;99.90;;;;;;4978329;28;20054;-83
2023/05/08 08:30:06;;;;;;;11.50;10.30;;;17.50;99.90;;;;;;4977066;28;20058;-84
2023/05/08 08:32:32;;;;;;;12.10;10.10;;;17.50;99.90;;;;;;4979082;28;20051;-84
2023/05/08 08:34:58;;;;;;;11.57;10.30;;;17.50;99.90;;;;;;4978179;28;20050;-84
2023/05/08 08:37:25;;;;;;;11.87;10.53;;;17.70;99.90;;;;;;4977298;28;20062;-83
2023/05/08 08:39:51;;;;;;;13.57;10.00;;;17.80;99.90;;;;;;4960768;28;20054;-84
2023/05/08 08:42:16;;;;;;;11.33;10.23;;;17.90;99.90;;;;;;4978013;28;20067;-84
2023/05/08 08:44:42;;;;;;;18.20;9.87;;;17.90;99.90;;;;;;4978628;28;20387;-83
2023/05/08 08:47:11;;;;;;;12.27;10.57;;;17.90;99.90;;;;;;4977860;28;20057;-84
2023/05/08 08:49:42;;;;;;;12.20;10.87;;;18.00;99.90;;;;;;4977954;28;20051;-84
2023/05/08 08:52:21;;;;;;;11.73;10.53;;;18.10;99.90;;;;;;4978513;28;20047;-84
2023/05/08 08:54:49;;;;;;;11.77;10.67;;;18.30;99.90;;;;;;4978443;28;20046;-83
2023/05/08 08:57:16;;;;;;;12.13;10.83;;;18.40;99.90;;;;;;4977813;28;20047;-84
2023/05/08 08:59:43;;;;;;;12.70;11.37;;;18.50;99.90;;;;;;4977748;28;20054;-84
2023/05/08 09:02:11;;;;;;;11.53;10.20;;;18.60;99.90;;;;;;4977684;28;20079;-83
2023/05/08 09:04:37;;;;;;;11.93;9.97;;;18.90;99.90;;;;;;4978233;28;20050;-84
2023/05/08 09:07:04;;;;;;;11.83;10.50;;;19.10;99.90;;;;;;4977006;28;20444;-84
2023/05/08 09:09:32;;;;;;;11.83;10.50;;;19.30;99.90;;;;;;4977591;28;20047;-84
2023/05/08 09:11:58;;;;;;;12.10;10.80;;;19.40;99.90;;;;;;4977550;28;20125;-84
2023/05/08 09:14:25;;;;;;;11.80;10.60;;;19.60;99.90;;;;;;4978003;28;20090;-84
2023/05/08 09:16:53;;;;;;;14.03;12.00;;;19.70;99.90;;;;;;4977936;28;20050;-84
2023/05/08 09:19:19;;;;;;;12.87;10.50;;;19.90;99.90;;;;;;4977424;28;20055;-83
2023/05/08 09:21:45;;;;;;;12.40;11.03;;;19.80;99.90;;;;;;4976878;28;20056;-84
2023/05/08 09:24:12;;;;;;;13.20;11.80;;;19.90;99.90;;;;;;4976358;28;20130;-84
2023/05/08 09:26:39;;;;;;;12.17;10.97;;;19.80;99.90;;;;;;4976056;28;20046;-83
2023/05/08 09:29:12;;;;;;;13.07;11.40;;;19.80;99.90;;;;;;4976309;28;20082;-83
2023/05/08 09:31:41;;;;;;;13.57;11.53;;;19.60;99.90;;;;;;4977479;28;20053;-83
2023/05/08 09:34:20;;;;;;;14.50;12.57;;;19.70;99.90;;;;;;4977145;28;20059;-83
2023/05/08 09:36:46;;;;;;;12.13;10.93;;;19.80;99.90;;;;;;4976975;28;20070;-83
2023/05/08 09:39:12;;;;;;;14.00;12.37;;;20.00;99.90;;;;;;4977013;28;20046;-83
2023/05/08 09:41:37;;;;;;;13.43;12.13;;;20.20;99.90;;;;;;4976878;28;20065;-82
2023/05/08 09:44:05;;;;;;;13.97;12.57;;;20.30;99.90;;;;;;4977067;28;20133;-83
2023/05/08 09:46:35;;;;;;;14.27;12.60;;;20.40;99.90;;;;;;4977158;28;20117;-83
2023/05/08 09:49:02;;;;;;;14.23;12.70;;;20.50;99.90;;;;;;4976575;28;20049;-84
2023/05/08 09:51:30;;;;;;;14.30;12.80;;;20.30;99.90;;;;;;4976733;28;20340;-83
2023/05/08 09:53:59;;;;;;;13.73;12.43;;;20.40;99.90;;;;;;4976813;28;20047;-83
2023/05/08 09:56:37;;;;;;;15.07;12.67;;;20.50;99.90;;;;;;4977326;28;20097;-83
2023/05/08 09:59:20;;;;;;;14.43;13.03;;;20.70;99.90;;;;;;4943786;28;20054;-83
2023/05/08 10:01:47;;;;;;;14.27;12.77;;;20.60;99.90;;;;;;4977479;28;20088;-83
2023/05/08 10:04:13;;;;;;;16.03;14.40;;;20.60;99.90;;;;;;4976563;28;20051;-83
2023/05/08 10:06:39;;;;;;;15.30;12.90;;;20.50;99.90;;;;;;4975394;28;20047;-83
2023/05/08 10:09:13;;;;;;;15.07;13.57;;;20.30;99.90;;;;;;4976299;28;20054;-83
2023/05/08 10:11:41;;;;;;;15.03;13.43;;;20.10;99.90;;;;;;4977226;28;20126;-83
2023/05/08 10:14:07;;;;;;;14.77;13.27;;;20.10;99.90;;;;;;4976357;28;20057;-83
2023/05/08 10:16:42;;;;;;;14.97;13.43;;;20.00;99.90;;;;;;4976372;28;20049;-83
2023/05/08 10:19:14;;;;;;;16.13;13.52;;;19.90;99.90;;;;;;4976634;28;20050;-83
2023/05/08 10:21:45;;;;;;;17.13;14.23;;;19.90;99.90;;;;;;4977043;28;20447;-83
2023/05/08 10:24:19;;;;;;;15.33;13.83;;;19.80;99.90;;;;;;4976519;28;20494;-83
2023/05/08 10:27:07;;;;;;;14.90;13.32;;;19.70;99.90;;;;;;4975353;28;20064;-83
2023/05/08 10:29:51;;;;;;;14.23;12.73;;;19.70;99.90;;;;;;4976228;28;20483;-84
2023/05/08 10:32:19;;;;;;;14.73;13.23;;;19.70;99.90;;;;;;4974751;28;20431;-83
2023/05/08 10:34:51;;;;;;;16.37;14.67;;;19.70;99.90;;;;;;4976283;28;20122;-83
2023/05/08 10:37:17;;;;;;;14.60;13.10;;;19.50;99.90;;;;;;4976037;28;20130;-83
2023/05/08 10:39:43;;;;;;;15.10;13.60;;;19.60;99.90;;;;;;4976067;28;20062;-83
2023/05/08 10:42:12;;;;;;;14.60;13.10;;;19.60;99.90;;;;;;4974599;28;20058;-83
2023/05/08 10:44:38;;;;;;;15.00;13.00;;;19.60;99.90;;;;;;4976224;28;20046;-83
2023/05/08 10:47:54;;;;;;;13.63;12.23;;;19.70;99.90;;;;;;4975740;28;20126;-83
2023/05/08 10:50:36;;;;;;;15.43;13.82;;;19.70;99.90;;;;;;4934119;28;20062;-83
2023/05/08 10:53:14;;;;;;;15.83;13.57;;;19.80;99.90;;;;;;4975819;28;20046;-83
2023/05/08 10:55:44;;;;;;;14.27;12.77;;;19.80;99.90;;;;;;4975725;28;20051;-83
2023/05/08 10:58:33;;;;;;;14.33;12.93;;;19.80;99.90;;;;;;4975638;28;20130;-83
2023/05/08 11:00:58;;;;;;;15.30;13.07;;;19.80;99.90;;;;;;4974570;28;20046;-83
2023/05/08 11:03:28;;;;;;;14.57;12.47;;;19.90;99.90;;;;;;4975810;28;20090;-83
2023/05/08 11:05:55;;;;;;;13.90;12.50;;;20.00;99.90;;;;;;4976253;28;20071;-83
2023/05/08 11:08:23;;;;;;;15.30;13.17;;;20.00;99.90;;;;;;4975411;28;20054;-83
2023/05/08 11:11:00;;;;;;;14.70;12.90;;;20.10;99.90;;;;;;4975463;28;20039;-83
2023/05/08 11:13:32;;;;;;;14.67;12.17;;;20.20;99.90;;;;;;4975283;28;20047;-83
2023/05/08 11:15:57;;;;;;;14.73;12.63;;;20.10;99.90;;;;;;4975353;28;20133;-84
2023/05/08 11:18:24;;;;;;;15.93;12.83;;;20.20;99.90;;;;;;4975528;28;20085;-83
2023/05/08 11:21:14;;;;;;;15.13;13.53;;;20.20;99.90;;;;;;4975273;28;20046;-83
2023/05/08 11:23:40;;;;;;;14.77;13.27;;;20.30;99.90;;;;;;4969742;28;20070;-83
2023/05/08 11:26:14;;;;;;;14.67;13.17;;;20.30;99.90;;;;;;4975139;28;20051;-83
2023/05/08 11:28:55;;;;;;;14.67;13.07;;;20.40;99.90;;;;;;4975110;28;20403;-83
2023/05/08 11:31:22;;;;;;;15.93;14.23;;;20.50;99.90;;;;;;4975912;28;20070;-83
2023/05/08 11:33:48;;;;;;;14.83;13.30;;;20.50;99.90;;;;;;4975056;28;20042;-83
2023/05/08 11:36:14;;;;;;;15.17;13.67;;;20.60;99.90;;;;;;4973814;28;20043;-83
2023/05/08 11:38:42;;;;;;;14.60;13.07;;;20.70;99.90;;;;;;4975004;28;20047;-84
2023/05/08 11:41:22;;;;;;;15.50;14.00;;;20.80;99.90;;;;;;4974562;28;20554;-82
2023/05/08 11:44:12;;;;;;;14.73;13.20;;;20.90;99.90;;;;;;4974569;28;20081;-82
2023/05/08 11:46:53;;;;;;;16.50;14.13;;;20.90;99.90;;;;;;4974782;28;20061;-83
2023/05/08 11:49:23;;;;;;;16.27;13.87;;;20.90;99.90;;;;;;4974746;28;20471;-83
2023/05/08 11:51:56;;;;;;;16.37;14.77;;;21.00;99.90;;;;;;4974116;28;20050;-83
2023/05/08 11:54:23;;;;;;;15.50;13.87;;;21.10;99.90;;;;;;4975063;28;20073;-83
2023/05/08 11:56:50;;;;;;;18.60;16.63;;;21.20;99.90;;;;;;4974768;28;20043;-83
2023/05/08 11:59:16;;;;;;;16.17;14.37;;;21.20;99.90;;;;;;4975159;28;20055;-83
2023/05/08 12:01:43;;;;;;;16.50;14.73;;;21.30;99.90;;;;;;4974983;28;20109;-82
2023/05/08 12:04:10;;;;;;;16.67;14.70;;;21.40;99.90;;;;;;4974883;28;20054;-83
2023/05/08 12:06:39;;;;;;;16.50;14.80;;;21.50;99.90;;;;;;4974248;28;20120;-83
2023/05/08 12:09:14;;;;;;;16.23;14.63;;;21.60;99.90;;;;;;4974332;28;20402;-83
2023/05/08 12:11:42;;;;;;;16.73;15.07;;;21.70;99.90;;;;;;4974532;28;20178;-83
2023/05/08 12:14:08;;;;;;;15.07;13.50;;;21.70;99.90;;;;;;4974599;28;20057;-83
2023/05/08 12:16:36;;;;;;;16.17;14.47;;;21.80;99.90;;;;;;4975052;28;20375;-83
2023/05/08 12:19:03;;;;;;;16.40;14.70;;;21.80;99.90;;;;;;4974559;28;20054;-82
2023/05/08 12:21:28;;;;;;;15.27;13.77;;;21.80;99.90;;;;;;4974530;28;20491;-83
2023/05/08 12:23:55;;;;;;;15.20;13.57;;;21.90;99.90;;;;;;4974696;28;20043;-83
2023/05/08 12:26:21;;;;;;;17.10;15.37;;;22.00;99.90;;;;;;4974357;28;20125;-83
2023/05/08 12:28:53;;;;;;;15.23;13.63;;;22.00;99.90;;;;;;4973493;28;20390;-83
2023/05/08 12:31:19;;;;;;;14.73;13.17;;;22.00;99.90;;;;;;4974999;28;20131;-83
2023/05/08 12:33:46;;;;;;;14.37;12.93;;;22.00;99.90;;;;;;4974316;28;20137;-83
2023/05/08 12:36:12;;;;;;;15.87;14.23;;;22.10;99.90;;;;;;4974328;28;20093;-83
2023/05/08 12:38:38;;;;;;;15.70;14.17;;;22.10;99.90;;;;;;4974472;28;20138;-83